Time;durP1;ratioP1;P1;durP2;ratioP2;P2;SDS_P1;SDS_P2;PMS_P1;PMS_P2;Temp;Humidity;BMP_temperature;BMP_pressure;BME280_temperature;BME280_humidity;BME280_pressure;Samples;Min_cycle;Max_cycle;Signal;HPM_P1;HPM_P2
2022/10/22 00:01:45;;;;;;;29.45;15.72;;;;;;;7.13;77.91;97962.56;1688831;84;21020;-80
2022/10/22 00:04:11;;;;;;;26.12;15.63;;;;;;;7.12;78.27;97958.63;1688782;83;20980;-80
2022/10/22 00:06:38;;;;;;;33.35;16.87;;;;;;;7.07;77.71;97952.56;1687008;83;21476;-80
2022/10/22 00:09:04;;;;;;;31.87;16.95;;;;;;;6.98;77.94;97953.12;1688833;84;20985;-80
2022/10/22 00:11:31;;;;;;;30.55;16.30;;;;;;;6.91;77.88;97955.44;1694016;83;21379;-80
2022/10/22 00:13:57;;;;;;;30.90;16.45;;;;;;;6.88;77.75;97958.11;1706762;83;20981;-80
2022/10/22 00:16:24;;;;;;;32.35;16.35;;;;;;;6.82;77.90;97951.16;1710100;82;20985;-80
2022/10/22 00:18:50;;;;;;;32.75;15.95;;;;;;;6.76;78.06;97947.78;1697910;83;21032;-78
2022/10/22 00:21:17;;;;;;;31.00;16.15;;;;;;;6.69;78.23;97942.58;1721424;82;21021;-78
2022/10/22 00:23:44;;;;;;;26.70;15.53;;;;;;;6.65;78.03;97939.59;1710381;82;20995;-78
2022/10/22 00:26:11;;;;;;;37.80;18.32;;;;;;;6.60;78.73;97947.97;1711322;81;21099;-78
2022/10/22 00:28:38;;;;;;;32.70;16.67;;;;;;;6.56;78.72;97947.62;1720494;82;21052;-78
2022/10/22 00:31:06;;;;;;;32.63;16.32;;;;;;;6.52;78.94;97947.23;1721318;82;21000;-78
2022/10/22 00:33:33;;;;;;;33.98;16.23;;;;;;;6.49;78.86;97934.10;1721179;82;20997;-78
2022/10/22 00:35:59;;;;;;;26.50;16.07;;;;;;;6.45;79.07;97939.40;1721229;82;20981;-78
2022/10/22 00:38:26;;;;;;;28.55;16.75;;;;;;;6.43;78.66;97939.88;1721192;81;20998;-78
2022/10/22 00:40:52;;;;;;;29.27;16.48;;;;;;;6.39;78.61;97940.80;1709569;82;21086;-78
2022/10/22 00:43:19;;;;;;;28.60;15.30;;;;;;;6.38;79.05;97937.76;1713240;81;20989;-78
2022/10/22 00:45:46;;;;;;;31.07;17.17;;;;;;;6.38;79.05;97937.76;1720088;82;20973;-78
2022/10/22 00:48:24;;;;;;;29.48;15.83;;;;;;;6.36;78.69;97940.88;1719918;83;21029;-78
2022/10/22 00:51:03;;;;;;;29.48;14.78;;;;;;;6.31;79.24;97941.38;1701716;82;20996;-78
2022/10/22 00:53:37;;;;;;;22.42;13.62;;;;;;;6.29;79.21;97936.56;1721200;82;21029;-78
2022/10/22 00:56:05;;;;;;;26.10;14.63;;;;;;;6.27;79.14;97936.58;1721485;82;20972;-78
2022/10/22 00:58:36;;;;;;;28.70;14.50;;;;;;;6.26;79.13;97936.59;1721225;82;21076;-78
2022/10/22 01:01:05;;;;;;;31.33;14.47;;;;;;;6.23;78.81;97932.70;1721259;82;20949;-78
2022/10/22 01:03:32;;;;;;;28.55;15.78;;;;;;;6.18;79.14;97939.33;1721423;82;20981;-79
2022/10/22 01:06:02;;;;;;;28.05;15.78;;;;;;;6.14;79.47;97936.33;1717237;82;20994;-79
2022/10/22 01:08:46;;;;;;;27.73;16.45;;;;;;;6.12;79.15;97931.52;1720002;82;20965;-78
2022/10/22 01:11:34;;;;;;;29.42;16.05;;;;;;;6.08;79.20;97926.74;1721436;81;20993;-79
2022/10/22 01:14:14;;;;;;;31.60;17.37;;;;;;;6.04;79.02;97911.45;1714953;82;21010;-78
2022/10/22 01:17:07;;;;;;;32.30;17.32;;;;;;;5.99;79.44;97926.39;1688225;84;20994;-79
2022/10/22 01:19:51;;;;;;;32.98;18.35;;;;;;;5.98;79.31;97922.45;1708132;84;21005;-78
2022/10/22 01:22:35;;;;;;;36.80;19.17;;;;;;;5.93;79.87;97927.33;1708201;84;21026;-78
2022/10/22 01:25:59;;;;;;;28.20;16.73;;;;;;;5.93;79.78;97927.33;1690181;83;20981;-78
2022/10/22 01:28:52;;;;;;;33.63;17.55;;;;;;;5.92;79.99;97921.64;1689300;84;21036;-78
2022/10/22 01:31:21;;;;;;;31.55;16.75;;;;;;;5.92;79.72;97922.08;1708172;83;21019;-78
2022/10/22 01:33:49;;;;;;;31.40;16.62;;;;;;;5.89;79.96;97919.47;1705794;82;21028;-78
2022/10/22 01:36:18;;;;;;;30.52;17.30;;;;;;;5.87;79.83;97912.05;1708159;84;20973;-78
2022/10/22 01:38:46;;;;;;;28.57;16.12;;;;;;;5.85;79.92;97914.70;1708196;83;21391;-78
2022/10/22 01:41:13;;;;;;;26.17;16.00;;;;;;;5.84;80.02;97916.02;1708040;82;21407;-78
2022/10/22 01:43:40;;;;;;;31.85;16.90;;;;;;;5.83;80.10;97915.17;1708367;83;21041;-79
2022/10/22 01:46:09;;;;;;;33.67;17.98;;;;;;;5.81;80.54;97916.50;1705534;84;21325;-79
2022/10/22 01:48:41;;;;;;;33.00;17.77;;;;;;;5.80;80.43;97905.99;1708191;83;21048;-78
2022/10/22 01:51:42;;;;;;;37.60;19.42;;;;;;;5.81;81.03;97916.93;1708277;83;21021;-79
2022/10/22 01:54:32;;;;;;;35.10;19.02;;;;;;;5.78;80.60;97912.58;1708194;84;21472;-79
2022/10/22 01:57:36;;;;;;;33.73;19.90;;;;;;;5.76;80.46;97906.48;1704410;84;20990;-79
2022/10/22 02:00:10;;;;;;;33.05;18.48;;;;;;;5.74;80.43;97904.76;1708346;83;21061;-79
2022/10/22 02:02:57;;;;;;;32.85;18.32;;;;;;;5.71;80.59;97905.66;1688221;84;21167;-79
2022/10/22 02:05:32;;;;;;;33.88;18.17;;;;;;;5.70;80.77;97908.30;1704001;83;21030;-79
2022/10/22 02:08:13;;;;;;;31.12;18.60;;;;;;;5.66;80.53;97895.18;1708402;84;20942;-79
2022/10/22 02:10:43;;;;;;;30.48;17.05;;;;;;;5.65;80.76;97901.33;1708122;84;21305;-79
2022/10/22 02:13:18;;;;;;;35.58;18.75;;;;;;;5.64;81.04;97893.45;1708335;83;20979;-79
2022/10/22 02:15:48;;;;;;;30.50;17.32;;;;;;;5.61;80.87;97902.25;1687854;82;20975;-79
2022/10/22 02:18:20;;;;;;;37.33;18.48;;;;;;;5.60;80.91;97908.41;1708487;83;21013;-79
2022/10/22 02:20:49;;;;;;;31.82;18.75;;;;;;;5.63;80.80;97904.44;1708580;83;21050;-79
2022/10/22 02:23:16;;;;;;;29.98;17.77;;;;;;;5.62;81.04;97908.39;1686746;83;21020;-79
2022/10/22 02:25:47;;;;;;;34.92;17.57;;;;;;;5.66;81.08;97911.42;1699272;83;20970;-79
2022/10/22 02:28:48;;;;;;;28.87;17.67;;;;;;;5.69;81.19;97906.11;1688216;84;21017;-78
2022/10/22 02:31:19;;;;;;;30.00;17.62;;;;;;;5.72;81.50;97908.72;1708111;83;20989;-79
2022/10/22 02:33:52;;;;;;;35.43;17.75;;;;;;;5.78;81.58;97903.38;1692196;84;21526;-78
2022/10/22 02:36:20;;;;;;;32.97;17.03;;;;;;;5.85;82.19;97900.23;1708770;83;21037;-79
2022/10/22 02:38:50;;;;;;;34.08;17.57;;;;;;;5.89;82.36;97908.95;1686556;84;20990;-79
2022/10/22 02:41:18;;;;;;;30.40;17.30;;;;;;;5.95;82.50;97903.63;1700129;84;21031;-79
2022/10/22 02:43:53;;;;;;;32.08;17.62;;;;;;;6.02;82.02;97897.86;1708358;83;21045;-79
2022/10/22 02:46:20;;;;;;;29.65;16.97;;;;;;;6.03;81.85;97899.16;1708429;83;20989;-79
2022/10/22 02:48:47;;;;;;;29.67;16.80;;;;;;;6.04;82.00;97901.36;1708417;84;20993;-79
2022/10/22 02:51:14;;;;;;;31.15;16.50;;;;;;;6.06;82.56;97895.19;1708345;82;20978;-78
2022/10/22 02:53:40;;;;;;;28.27;16.57;;;;;;;6.12;82.20;97898.19;1708544;83;21084;-79
2022/10/22 02:56:07;;;;;;;29.70;17.15;;;;;;;6.18;82.48;97897.22;1708574;84;21399;-79
2022/10/22 02:58:34;;;;;;;26.37;15.55;;;;;;;6.24;82.25;97894.53;1708492;84;21534;-79
2022/10/22 03:01:00;;;;;;;32.33;16.70;;;;;;;6.29;82.38;97887.87;1704604;82;21001;-77
2022/10/22 03:03:27;;;;;;;31.68;17.25;;;;;;;6.33;82.38;97889.14;1708618;82;21001;-77
2022/10/22 03:05:53;;;;;;;29.87;15.35;;;;;;;6.34;82.05;97882.09;1708308;84;21001;-77
2022/10/22 03:08:20;;;;;;;26.97;14.18;;;;;;;6.32;82.34;97878.16;1708791;84;21387;-77
2022/10/22 03:10:46;;;;;;;25.15;13.65;;;;;;;6.31;82.22;97872.48;1686615;84;21053;-77
2022/10/22 03:13:13;;;;;;;26.93;15.30;;;;;;;6.29;81.97;97870.33;1708548;82;20997;-77
2022/10/22 03:15:39;;;;;;;25.02;14.30;;;;;;;6.25;81.81;97875.64;1700682;82;21007;-77
2022/10/22 03:18:06;;;;;;;25.40;14.03;;;;;;;6.23;81.52;97876.12;1721064;81;21040;-78
2022/10/22 03:20:32;;;;;;;20.72;11.80;;;;;;;6.15;81.48;97883.66;1718886;81;21044;-77
2022/10/22 03:23:01;;;;;;;25.92;13.78;;;;;;;6.05;81.59;97880.73;1720961;82;20972;-77
2022/10/22 03:25:30;;;;;;;27.50;13.28;;;;;;;6.03;81.69;97880.74;1721338;82;20997;-77
2022/10/22 03:28:01;;;;;;;20.88;12.33;;;;;;;5.99;81.86;97887.36;1721195;82;21016;-77
2022/10/22 03:30:27;;;;;;;23.70;12.73;;;;;;;5.89;81.63;97885.27;1721438;82;21021;-77
2022/10/22 03:32:54;;;;;;;27.50;14.18;;;;;;;5.85;81.78;97890.17;1720842;82;21033;-77
2022/10/22 03:35:20;;;;;;;23.77;15.20;;;;;;;5.79;82.12;97888.05;1719412;83;21016;-77
2022/10/22 03:37:47;;;;;;;25.25;14.53;;;;;;;5.76;81.73;97887.19;1721319;82;21037;-77
2022/10/22 03:40:14;;;;;;;27.32;15.85;;;;;;;5.71;81.55;97889.00;1718234;82;20978;-77
2022/10/22 03:42:41;;;;;;;24.98;14.98;;;;;;;5.64;81.63;97890.40;1721378;82;21414;-77
2022/10/22 03:45:10;;;;;;;24.98;15.43;;;;;;;5.60;82.13;97895.26;1721242;81;21447;-77
2022/10/22 03:47:36;;;;;;;27.82;16.35;;;;;;;5.54;82.10;97885.70;1719577;82;20993;-77
2022/10/22 03:50:05;;;;;;;30.55;15.78;;;;;;;5.48;82.10;97878.33;1720730;81;21044;-77
2022/10/22 03:52:39;;;;;;;32.30;16.77;;;;;;;5.41;81.72;97879.68;1721450;82;21441;-77
2022/10/22 03:55:07;;;;;;;27.73;15.58;;;;;;;5.36;81.99;97890.69;1721325;82;21028;-77
2022/10/22 03:57:33;;;;;;;27.87;17.10;;;;;;;5.32;82.45;97880.23;1721348;82;21386;-78
2022/10/22 04:00:00;;;;;;;26.17;16.48;;;;;;;5.24;82.64;97896.08;1720250;82;21005;-78
2022/10/22 04:02:27;;;;;;;32.67;16.97;;;;;;;5.21;82.96;97881.22;1720684;82;21004;-78
2022/10/22 04:04:53;;;;;;;31.42;16.50;;;;;;;5.15;82.76;97893.11;1721364;82;21407;-78
2022/10/22 04:07:19;;;;;;;32.28;17.40;;;;;;;5.13;83.34;97898.80;1721366;82;21020;-78
2022/10/22 04:09:46;;;;;;;29.82;17.20;;;;;;;5.10;83.08;97887.88;1721193;82;21012;-78
2022/10/22 04:12:13;;;;;;;32.73;18.05;;;;;;;5.12;83.05;97886.09;1721329;81;21068;-78
2022/10/22 04:14:39;;;;;;;33.58;18.20;;;;;;;5.14;83.25;97888.28;1713736;81;21493;-78
2022/10/22 04:17:06;;;;;;;28.73;17.35;;;;;;;5.14;82.92;97893.97;1709041;81;21004;-77
2022/10/22 04:19:32;;;;;;;36.88;18.20;;;;;;;5.14;83.47;97884.77;1720921;82;21024;-77
2022/10/22 04:21:59;;;;;;;34.88;17.07;;;;;;;5.13;83.05;97891.80;1721193;82;20984;-77
2022/10/22 04:24:26;;;;;;;29.70;17.87;;;;;;;5.12;83.03;97890.03;1721363;82;21052;-77
2022/10/22 04:26:55;;;;;;;32.28;18.87;;;;;;;5.11;83.02;97883.05;1721417;82;21020;-77
2022/10/22 04:29:23;;;;;;;28.87;17.20;;;;;;;5.10;83.73;97881.74;1721259;82;20969;-77
2022/10/22 04:31:49;;;;;;;30.72;17.87;;;;;;;5.09;83.36;97879.58;1721116;83;21367;-77
2022/10/22 04:34:16;;;;;;;28.65;17.45;;;;;;;5.11;83.39;97876.94;1721311;82;21013;-77
2022/10/22 04:36:42;;;;;;;37.70;21.87;;;;;;;5.12;83.25;97879.98;1721333;82;21001;-77
2022/10/22 04:39:09;;;;;;;33.55;19.02;;;;;;;5.12;83.81;97882.62;1719844;82;21081;-77
2022/10/22 04:41:38;;;;;;;34.63;17.50;;;;;;;5.11;83.36;97878.25;1719919;82;21036;-77
2022/10/22 04:44:06;;;;;;;33.98;19.12;;;;;;;5.12;83.28;97879.53;1721257;82;20997;-76
2022/10/22 04:46:34;;;;;;;33.08;17.55;;;;;;;5.12;83.35;97883.94;1721340;82;21008;-76
2022/10/22 04:49:02;;;;;;;30.10;16.70;;;;;;;5.12;83.22;97890.03;1720244;83;21051;-78
2022/10/22 04:51:29;;;;;;;29.65;17.10;;;;;;;5.12;83.26;97888.72;1698878;83;20969;-78
2022/10/22 04:53:56;;;;;;;29.40;18.27;;;;;;;5.14;83.84;97886.09;1721451;82;21442;-78
2022/10/22 04:56:29;;;;;;;31.65;16.57;;;;;;;5.12;83.51;97886.56;1721418;82;21040;-78
2022/10/22 04:59:03;;;;;;;32.63;18.73;;;;;;;5.11;83.34;97889.61;1721208;82;21486;-78
2022/10/22 05:01:33;;;;;;;38.42;17.60;;;;;;;5.08;83.98;97888.35;1719744;82;20985;-77
2022/10/22 05:04:03;;;;;;;30.45;16.30;;;;;;;5.07;83.94;97889.67;1719647;82;21386;-77
2022/10/22 05:06:31;;;;;;;31.05;17.15;;;;;;;5.07;84.02;97887.89;1719144;82;20950;-77
2022/10/22 05:09:03;;;;;;;32.28;17.17;;;;;;;5.09;83.50;97890.52;1721529;82;21028;-77
2022/10/22 05:11:34;;;;;;;33.92;17.32;;;;;;;5.07;83.60;97899.72;1719253;82;21410;-77
2022/10/22 05:14:04;;;;;;;27.50;16.70;;;;;;;5.09;83.71;97899.28;1719675;82;21174;-77
2022/10/22 05:16:33;;;;;;;29.60;16.77;;;;;;;5.12;83.59;97893.98;1670513;84;21128;-78
2022/10/22 05:19:01;;;;;;;33.42;17.52;;;;;;;5.14;83.68;97899.22;1688692;83;20997;-77
2022/10/22 05:21:29;;;;;;;37.00;18.20;;;;;;;5.16;83.81;97904.04;1688595;84;20997;-77
2022/10/22 05:24:01;;;;;;;37.20;18.52;;;;;;;5.18;84.29;97902.72;1688767;84;21423;-78
2022/10/22 05:26:28;;;;;;;30.77;18.45;;;;;;;5.17;83.93;97899.20;1688693;83;20989;-77
2022/10/22 05:28:56;;;;;;;32.33;17.42;;;;;;;5.19;84.04;97905.77;1675709;84;21464;-77
2022/10/22 05:31:23;;;;;;;32.25;17.65;;;;;;;5.19;84.29;97909.24;1688971;83;21049;-78
2022/10/22 05:33:49;;;;;;;37.58;19.32;;;;;;;5.23;84.10;97905.70;1702402;83;21468;-78
2022/10/22 05:36:20;;;;;;;30.12;18.30;;;;;;;5.27;84.20;97908.73;1688822;84;20995;-78
2022/10/22 05:38:48;;;;;;;36.20;16.80;;;;;;;5.32;83.75;97912.66;1691081;83;21435;-78
2022/10/22 05:41:19;;;;;;;28.27;16.32;;;;;;;5.37;83.95;97910.85;1688307;83;21401;-77
2022/10/22 05:43:47;;;;;;;28.05;15.10;;;;;;;5.45;84.10;97914.72;1691281;84;20978;-77
2022/10/22 05:46:20;;;;;;;24.02;15.90;;;;;;;5.52;84.17;97920.78;1702361;83;20991;-78
2022/10/22 05:48:54;;;;;;;28.98;16.80;;;;;;;5.59;84.05;97918.93;1648738;87;20991;-77
2022/10/22 05:51:21;;;;;;;;;;;;;;;5.64;84.41;97924.58;1645037;86;21042;-77
2022/10/22 05:53:52;;;;;;;26.02;14.95;;;;;;;5.74;84.64;97919.22;1674079;84;20488;-77
2022/10/22 05:56:19;;;;;;;29.80;15.13;;;;;;;5.77;84.15;97924.45;1674089;84;21029;-77
2022/10/22 05:58:47;;;;;;;22.80;14.18;;;;;;;5.84;84.42;97931.80;1677853;84;21017;-77
2022/10/22 06:01:30;;;;;;;24.15;12.65;;;;;;;5.89;84.39;97927.36;1674604;85;20981;-77
2022/10/22 06:03:59;;;;;;;20.10;11.60;;;;;;;5.97;84.27;97934.73;1687190;83;21029;-78
2022/10/22 06:06:33;;;;;;;27.87;12.70;;;;;;;5.94;83.73;97929.52;1712128;83;21008;-80
2022/10/22 06:09:08;;;;;;;23.87;12.90;;;;;;;5.94;83.88;97930.38;1691951;83;21080;-79
2022/10/22 06:11:35;;;;;;;23.83;12.63;;;;;;;5.99;83.97;97932.97;1689167;84;21009;-78
2022/10/22 06:14:03;;;;;;;22.93;11.93;;;;;;;6.02;83.77;97924.16;1694555;83;21419;-78
2022/10/22 06:16:30;;;;;;;24.50;13.18;;;;;;;6.05;83.71;97938.17;1717706;82;21009;-79
2022/10/22 06:19:02;;;;;;;23.50;13.45;;;;;;;6.09;83.75;97942.95;1721328;82;21068;-81
2022/10/22 06:21:29;;;;;;;24.85;13.55;;;;;;;6.12;83.64;97932.83;1721408;82;21075;-78
2022/10/22 06:23:58;;;;;;;24.43;14.58;;;;;;;6.16;83.65;97933.22;1714261;81;21401;-71
2022/10/22 06:26:25;;;;;;;26.77;14.35;;;;;;;6.20;83.56;97932.30;1722807;81;21395;-70
2022/10/22 06:28:52;;;;;;;22.22;14.13;;;;;;;6.22;83.30;97929.66;1726339;82;20966;-69
2022/10/22 06:31:18;;;;;;;31.45;16.02;;;;;;;6.25;83.14;97920.37;1725207;82;20946;-69
2022/10/22 06:33:45;;;;;;;27.80;15.75;;;;;;;6.25;82.94;97912.05;1736737;82;21012;-69
2022/10/22 06:36:18;;;;;;;24.92;15.25;;;;;;;6.28;82.97;97910.70;1744653;82;21013;-69
2022/10/22 06:38:45;;;;;;;24.23;14.78;;;;;;;6.32;82.79;97910.21;1743129;82;21008;-69
2022/10/22 06:41:15;;;;;;;26.95;15.65;;;;;;;6.35;82.70;97906.20;1752215;81;20985;-69
2022/10/22 06:43:47;;;;;;;30.65;16.57;;;;;;;6.39;82.71;97897.84;1742583;82;21461;-69
2022/10/22 06:46:17;;;;;;;28.80;16.15;;;;;;;6.42;82.58;97898.66;1730992;82;20964;-69
2022/10/22 06:48:50;;;;;;;31.65;16.23;;;;;;;6.47;82.52;97894.62;1736081;82;21489;-70
2022/10/22 06:51:19;;;;;;;31.60;16.17;;;;;;;6.51;82.47;97896.33;1746216;82;21068;-69
2022/10/22 06:53:46;;;;;;;31.52;16.90;;;;;;;6.56;82.44;97894.95;1726202;82;21012;-70
2022/10/22 06:56:18;;;;;;;26.00;15.65;;;;;;;6.59;82.37;97895.78;1752967;81;21044;-69
2022/10/22 06:58:48;;;;;;;24.07;14.93;;;;;;;6.65;82.13;97899.20;1748699;82;21035;-69
2022/10/22 07:01:17;;;;;;;25.50;14.23;;;;;;;6.70;81.86;97905.27;1737236;82;20996;-69
2022/10/22 07:03:44;;;;;;;27.17;14.73;;;;;;;6.76;81.42;97906.95;1736841;82;20956;-69
2022/10/22 07:06:14;;;;;;;30.00;16.15;;;;;;;6.83;81.49;97912.53;1737906;82;22110;-69
2022/10/22 07:08:41;;;;;;;27.50;16.12;;;;;;;6.90;80.97;97909.36;1736412;82;20949;-69
2022/10/22 07:11:16;;;;;;;27.95;15.60;;;;;;;6.98;80.67;97907.01;1737532;82;20957;-69
2022/10/22 07:13:43;;;;;;;28.07;15.40;;;;;;;7.05;80.50;97906.47;1747934;81;20957;-69
2022/10/22 07:16:12;;;;;;;23.50;14.00;;;;;;;7.14;80.48;97909.38;1694933;82;21349;-69
2022/10/22 07:18:39;;;;;;;25.17;14.53;;;;;;;7.22;80.25;97908.81;1708333;84;21518;-69
2022/10/22 07:21:09;;;;;;;28.67;14.35;;;;;;;7.30;80.08;97911.78;1697926;83;21012;-69
2022/10/22 07:23:36;;;;;;;25.35;14.55;;;;;;;7.38;79.91;97905.89;1708533;83;20993;-69
2022/10/22 07:26:06;;;;;;;21.45;13.55;;;;;;;7.46;79.48;97911.91;1708066;84;21773;-69
2022/10/22 07:28:35;;;;;;;21.45;14.03;;;;;;;7.53;79.31;97906.93;1708457;83;21036;-69
2022/10/22 07:31:02;;;;;;;24.70;14.33;;;;;;;7.62;79.41;97907.66;1708449;83;20994;-69
2022/10/22 07:33:28;;;;;;;22.50;13.48;;;;;;;7.71;79.25;97907.92;1708444;84;21415;-70
2022/10/22 07:36:00;;;;;;;22.40;13.90;;;;;;;7.78;79.04;97906.45;1708496;84;20974;-69
2022/10/22 07:38:28;;;;;;;23.98;13.83;;;;;;;7.88;78.61;97899.23;1708422;84;21038;-70
2022/10/22 07:40:55;;;;;;;21.45;14.10;;;;;;;7.98;78.07;97904.33;1708471;84;21021;-71
2022/10/22 07:43:22;;;;;;;24.23;14.33;;;;;;;8.06;78.05;97903.27;1707627;82;21053;-69
2022/10/22 07:45:48;;;;;;;25.92;14.23;;;;;;;8.16;77.99;97901.31;1708464;84;21008;-70
2022/10/22 07:48:17;;;;;;;27.13;15.95;;;;;;;8.25;77.63;97900.23;1708315;84;20993;-69
2022/10/22 07:50:43;;;;;;;28.62;15.60;;;;;;;8.33;77.49;97896.11;1708641;82;21005;-70
2022/10/22 07:53:10;;;;;;;26.65;15.20;;;;;;;8.42;77.32;97898.98;1708573;83;21068;-70
2022/10/22 07:55:36;;;;;;;26.60;16.55;;;;;;;8.53;76.38;97901.42;1708540;83;21009;-70
2022/10/22 07:58:03;;;;;;;29.18;15.83;;;;;;;8.62;76.26;97901.22;1708616;83;20997;-69
2022/10/22 08:00:31;;;;;;;53.08;28.32;;;;;;;8.72;76.40;97904.50;1707822;83;21028;-69
2022/10/22 08:02:58;;;;;;;38.67;22.58;;;;;;;8.83;75.66;97906.45;1704004;84;21403;-70
2022/10/22 08:05:25;;;;;;;33.02;17.55;;;;;;;8.94;75.42;97904.00;1706242;82;21056;-69
2022/10/22 08:07:51;;;;;;;28.12;16.55;;;;;;;9.04;75.28;97900.22;1708524;82;21033;-69
2022/10/22 08:10:18;;;;;;;30.57;17.40;;;;;;;9.14;74.14;97896.03;1708611;83;21495;-70
2022/10/22 08:12:44;;;;;;;28.95;16.30;;;;;;;9.23;74.71;97903.73;1700675;83;21017;-70
2022/10/22 08:15:11;;;;;;;29.55;17.20;;;;;;;9.33;74.40;97900.38;1692857;84;20998;-70
2022/10/22 08:17:38;;;;;;;23.25;15.40;;;;;;;9.43;73.91;97896.58;1702668;82;21001;-69
2022/10/22 08:20:05;;;;;;;26.55;15.45;;;;;;;9.56;73.92;97902.88;1708660;84;21061;-70
2022/10/22 08:22:32;;;;;;;26.10;14.63;;;;;;;9.66;73.25;97904.80;1708381;84;21041;-69
2022/10/22 08:24:59;;;;;;;26.02;15.15;;;;;;;9.79;73.48;97906.69;1707729;84;21025;-69
2022/10/22 08:27:26;;;;;;;24.87;15.05;;;;;;;9.91;73.33;97902.34;1708603;83;21295;-69
2022/10/22 08:29:52;;;;;;;27.10;15.88;;;;;;;10.01;72.69;97899.84;1708608;83;21426;-69
2022/10/22 08:32:19;;;;;;;26.93;15.23;;;;;;;10.14;72.56;97896.86;1708676;84;20994;-69
2022/10/22 08:34:45;;;;;;;26.05;15.60;;;;;;;10.25;71.95;97893.87;1707339;84;21024;-69
2022/10/22 08:37:13;;;;;;;21.87;14.53;;;;;;;10.38;71.17;97899.69;1708550;82;20993;-70
2022/10/22 08:39:40;;;;;;;24.75;14.70;;;;;;;10.51;70.35;97901.53;1708489;82;21025;-69
2022/10/22 08:42:54;;;;;;;22.82;14.58;;;;;;;10.64;70.95;97902.02;1708522;84;21065;-69
2022/10/22 08:45:29;;;;;;;24.65;15.80;;;;;;;10.81;70.95;97900.16;1707607;84;21073;-69
2022/10/22 08:48:05;;;;;;;32.45;19.05;;;;;;;11.03;70.02;97908.73;1708690;83;21013;-69
2022/10/22 08:50:39;;;;;;;25.25;15.30;;;;;;;11.24;69.98;97911.61;1708268;82;21025;-69
2022/10/22 08:53:13;;;;;;;27.98;16.60;;;;;;;11.38;68.50;97909.33;1698267;83;21020;-70
2022/10/22 08:55:40;;;;;;;26.73;16.17;;;;;;;11.55;69.30;97923.34;1670408;84;21035;-69
2022/10/22 08:58:45;;;;;;;24.25;16.17;;;;;;;11.64;66.78;97918.19;1708589;82;21017;-69
2022/10/22 09:01:34;;;;;;;28.17;15.13;;;;;;;11.72;67.39;97916.11;1668374;85;21030;-69
2022/10/22 09:04:30;;;;;;;28.95;16.00;;;;;;;11.82;67.59;97923.75;1704697;83;21009;-69
2022/10/22 09:06:59;;;;;;;28.77;17.62;;;;;;;11.93;67.42;97926.03;1708555;84;20978;-70
2022/10/22 09:09:31;;;;;;;28.77;16.52;;;;;;;12.01;67.45;97919.50;1708586;84;21017;-70
2022/10/22 09:12:00;;;;;;;25.12;16.35;;;;;;;12.02;66.85;97915.08;1704140;82;21005;-70
2022/10/22 09:14:28;;;;;;;26.60;16.60;;;;;;;12.05;66.20;97927.41;1708525;83;21427;-70
2022/10/22 09:17:20;;;;;;;32.05;17.48;;;;;;;12.09;66.14;97922.39;1680114;85;21021;-69
2022/10/22 09:20:05;;;;;;;30.25;18.55;;;;;;;12.14;65.96;97923.08;1658405;86;21072;-70
2022/10/22 09:22:49;;;;;;;29.20;18.15;;;;;;;12.21;65.95;97924.57;1719606;82;21016;-69
2022/10/22 09:25:23;;;;;;;28.27;18.67;;;;;;;12.25;65.64;97920.88;1687876;85;20995;-69
2022/10/22 09:27:51;;;;;;;30.15;19.62;;;;;;;12.27;65.50;97917.72;1687941;85;20986;-71
2022/10/22 09:30:22;;;;;;;31.68;18.55;;;;;;;12.36;65.39;97923.14;1658326;86;21439;-69
2022/10/22 09:33:03;;;;;;;30.12;18.52;;;;;;;12.44;65.33;97916.65;1715669;82;21399;-70
2022/10/22 09:35:52;;;;;;;25.02;17.73;;;;;;;12.54;64.21;97907.39;1717470;83;20993;-69
2022/10/22 09:38:22;;;;;;;29.27;18.02;;;;;;;12.66;64.85;97912.69;1718131;83;21016;-69
2022/10/22 09:40:53;;;;;;;28.20;17.40;;;;;;;12.79;65.00;97909.11;1718868;82;20996;-69
2022/10/22 09:43:20;;;;;;;31.50;15.55;;;;;;;12.91;64.52;97905.06;1688027;84;20941;-69
2022/10/22 09:45:47;;;;;;;29.98;17.17;;;;;;;13.04;64.32;97902.80;1658511;86;21562;-69
2022/10/22 09:48:20;;;;;;;26.05;17.80;;;;;;;13.14;63.95;97897.94;1719428;83;21021;-69
2022/10/22 09:50:52;;;;;;;23.45;16.20;;;;;;;13.28;64.04;97901.34;1719602;83;20989;-69
2022/10/22 09:53:28;;;;;;;22.37;14.33;;;;;;;13.41;63.17;97894.58;1717709;82;21036;-69
2022/10/22 09:55:59;;;;;;;24.23;16.37;;;;;;;13.54;63.34;97901.59;1719455;82;21004;-70
2022/10/22 09:58:26;;;;;;;26.00;17.27;;;;;;;13.66;62.97;97898.02;1719493;83;21086;-69
2022/10/22 10:00:59;;;;;;;26.12;16.23;;;;;;;13.80;62.86;97896.95;1719309;83;21053;-69
2022/10/22 10:03:31;;;;;;;24.27;15.88;;;;;;;13.92;62.47;97892.00;1719727;83;21004;-70
2022/10/22 10:06:01;;;;;;;27.05;16.37;;;;;;;14.09;61.09;97894.78;1719449;83;21443;-69
2022/10/22 10:08:28;;;;;;;24.37;15.50;;;;;;;14.30;61.21;97892.50;1687710;85;20984;-69
2022/10/22 10:11:06;;;;;;;25.40;15.32;;;;;;;14.50;60.64;97881.77;1719503;83;20969;-69
2022/10/22 10:13:53;;;;;;;22.80;14.73;;;;;;;14.61;60.43;97879.05;1718878;83;20981;-69
2022/10/22 10:16:40;;;;;;;20.80;14.33;;;;;;;14.74;60.64;97884.20;1698504;82;21064;-70
2022/10/22 10:19:24;;;;;;;24.05;14.63;;;;;;;14.95;59.93;97877.93;1707809;83;21001;-69
2022/10/22 10:22:30;;;;;;;21.93;14.13;;;;;;;15.07;59.14;97879.12;1691373;83;21029;-69
2022/10/22 10:25:32;;;;;;;23.02;13.88;;;;;;;15.28;58.98;97875.85;1708188;83;21040;-69
2022/10/22 10:28:13;;;;;;;20.95;13.35;;;;;;;15.41;58.24;97874.75;1689395;83;20998;-70
2022/10/22 10:30:45;;;;;;;20.85;13.68;;;;;;;15.66;58.88;97882.33;1699604;84;21037;-69
2022/10/22 10:33:23;;;;;;;21.73;12.68;;;;;;;16.08;57.94;97879.32;1706787;82;21057;-70
2022/10/22 10:36:13;;;;;;;23.85;14.30;;;;;;;16.40;57.54;97868.66;1708251;83;21069;-69
2022/10/22 10:39:23;;;;;;;21.27;12.88;;;;;;;16.59;56.45;97879.67;1652006;86;21412;-70
2022/10/22 10:42:38;;;;;;;19.80;12.78;;;;;;;16.72;56.41;97881.17;1697382;83;21014;-69
2022/10/22 10:45:16;;;;;;;17.05;12.15;;;;;;;17.71;54.97;97867.88;1708327;83;20985;-69
2022/10/22 10:47:57;;;;;;;20.43;11.25;;;;;;;18.55;52.94;97870.77;1708212;83;20997;-70
2022/10/22 10:50:34;;;;;;;16.80;10.93;;;;;;;19.52;52.33;97872.05;1707258;82;21005;-70
2022/10/22 10:53:15;;;;;;;16.97;11.30;;;;;;;20.58;51.71;97858.45;1691222;84;21049;-69
2022/10/22 10:56:12;;;;;;;19.80;12.60;;;;;;;21.69;50.48;97859.22;1689937;84;21004;-70
2022/10/22 10:59:15;;;;;;;17.98;12.28;;;;;;;22.40;46.80;97849.23;1708184;82;20994;-69
2022/10/22 11:02:11;;;;;;;23.12;12.50;;;;;;;23.02;47.29;97846.05;1693023;84;21072;-70
2022/10/22 11:05:04;;;;;;;16.77;12.03;;;;;;;23.71;41.47;97838.52;1707701;84;20986;-70
2022/10/22 11:07:36;;;;;;;16.62;12.25;;;;;;;24.26;39.34;97831.97;1700419;84;21405;-70
2022/10/22 11:10:25;;;;;;;16.97;11.78;;;;;;;24.41;38.00;97827.53;1701742;84;20981;-72
2022/10/22 11:13:00;;;;;;;17.32;12.10;;;;;;;24.72;39.01;97827.46;1704895;83;21447;-77
2022/10/22 11:15:40;;;;;;;17.55;11.22;;;;;;;24.92;39.15;97827.03;1690140;84;21056;-78
2022/10/22 11:18:19;;;;;;;15.32;10.38;;;;;;;25.42;37.58;97818.39;1706020;84;21009;-72
2022/10/22 11:21:05;;;;;;;13.15;11.00;;;;;;;25.64;36.94;97819.09;1722245;82;20953;-75
2022/10/22 11:23:47;;;;;;;16.00;11.33;;;;;;;25.83;35.31;97814.98;1719225;82;21005;-74
2022/10/22 11:26:36;;;;;;;15.70;11.15;;;;;;;25.76;36.28;97810.28;1722652;82;21024;-75
2022/10/22 11:29:06;;;;;;;17.50;11.85;;;;;;;25.26;37.41;97816.26;1721957;81;21493;-74
2022/10/22 11:31:33;;;;;;;14.78;10.88;;;;;;;24.82;36.30;97813.94;1722409;81;21311;-73
2022/10/22 11:34:19;;;;;;;14.05;10.72;;;;;;;24.29;38.45;97814.08;1718528;82;21040;-74
2022/10/22 11:36:48;;;;;;;12.88;9.60;;;;;;;24.18;38.16;97810.12;1726508;82;21431;-74
2022/10/22 11:39:46;;;;;;;12.65;9.58;;;;;;;23.95;37.63;97811.14;1719624;82;21024;-73
2022/10/22 11:42:35;;;;;;;15.48;9.85;;;;;;;23.65;37.05;97806.56;1720679;82;21057;-74
2022/10/22 11:45:16;;;;;;;14.00;9.83;;;;;;;23.41;37.59;97806.36;1693055;83;20969;-73
2022/10/22 11:48:12;;;;;;;12.55;9.15;;;;;;;23.62;38.02;97805.49;1717651;82;21016;-72
2022/10/22 11:50:46;;;;;;;13.85;9.30;;;;;;;23.76;38.00;97793.45;1714410;82;20971;-73